Time;durP1;ratioP1;P1;durP2;ratioP2;P2;SDS_P1;SDS_P2;PMS_P1;PMS_P2;Temp;Humidity;BMP_temperature;BMP_pressure;BME280_temperature;BME280_humidity;BME280_pressure;Samples;Min_cycle;Max_cycle;Signal;HPM_P1;HPM_P2
2022/11/29 00:01:02;;;;;;;21.73;14.48;;;;;;;5.55;87.76;99833.13;5032423;28;20025;-67
2022/11/29 00:03:28;;;;;;;21.13;13.00;;;;;;;5.51;87.75;99828.44;5032251;28;20504;-67
2022/11/29 00:05:55;;;;;;;22.23;13.65;;;;;;;5.58;87.62;99829.75;5030209;28;20415;-67
2022/11/29 00:08:21;;;;;;;23.02;14.27;;;;;;;5.65;87.72;99820.28;5032284;28;20037;-67
2022/11/29 00:10:47;;;;;;;18.70;13.13;;;;;;;5.52;87.66;99821.78;5032169;28;20064;-67
2022/11/29 00:13:13;;;;;;;30.55;14.45;;;;;;;5.46;87.51;99824.63;5032131;28;20053;-67
2022/11/29 00:15:39;;;;;;;22.48;13.60;;;;;;;5.54;87.78;99822.31;5013004;28;20017;-67
2022/11/29 00:18:06;;;;;;;24.50;13.25;;;;;;;5.56;87.68;99820.91;5032057;28;20026;-67
2022/11/29 00:20:33;;;;;;;23.20;14.80;;;;;;;5.60;87.67;99819.19;5031856;28;20017;-67
2022/11/29 00:22:58;;;;;;;22.60;15.13;;;;;;;5.63;87.65;99823.31;5030831;28;20025;-67
2022/11/29 00:25:24;;;;;;;22.40;13.60;;;;;;;5.65;87.60;99817.50;5031649;28;20107;-67
2022/11/29 00:27:50;;;;;;;23.17;13.70;;;;;;;5.64;87.64;99811.09;5014251;28;20115;-66
2022/11/29 00:30:17;;;;;;;19.85;14.02;;;;;;;5.64;87.54;99811.09;5031742;28;20025;-67
2022/11/29 00:32:42;;;;;;;23.73;13.85;;;;;;;5.54;88.29;99819.53;5012889;28;20048;-67
2022/11/29 00:35:08;;;;;;;20.50;13.65;;;;;;;5.53;88.19;99809.56;5031779;28;20061;-67
2022/11/29 00:37:33;;;;;;;24.63;14.60;;;;;;;5.54;88.25;99813.97;5031793;28;20017;-67
2022/11/29 00:39:59;;;;;;;22.65;14.02;;;;;;;5.56;88.61;99811.75;5013857;28;20079;-67
2022/11/29 00:42:24;;;;;;;23.15;14.50;;;;;;;5.55;88.05;99801.75;5030096;28;20025;-67
2022/11/29 00:44:50;;;;;;;24.00;15.20;;;;;;;5.47;88.39;99801.28;5031517;28;20033;-67
2022/11/29 00:47:16;;;;;;;23.33;13.98;;;;;;;5.41;88.70;99799.69;5013762;28;20049;-66
2022/11/29 00:49:41;;;;;;;21.65;13.27;;;;;;;5.41;89.04;99799.69;5013695;28;20021;-67
2022/11/29 00:52:06;;;;;;;20.65;13.68;;;;;;;5.45;88.74;99803.53;5031508;28;20049;-67
2022/11/29 00:54:32;;;;;;;20.92;12.88;;;;;;;5.48;88.90;99800.16;5030219;28;20052;-67
2022/11/29 00:56:57;;;;;;;21.10;14.00;;;;;;;5.52;89.11;99805.97;5013329;28;20017;-67
2022/11/29 00:59:23;;;;;;;21.17;13.05;;;;;;;5.54;88.92;99802.88;4993995;28;20492;-67
2022/11/29 01:01:49;;;;;;;21.25;13.43;;;;;;;5.53;88.18;99801.22;5011704;28;20021;-67
2022/11/29 01:04:14;;;;;;;20.77;14.23;;;;;;;5.43;88.36;99799.41;5023533;28;20029;-67
2022/11/29 01:06:40;;;;;;;19.92;13.93;;;;;;;5.42;88.32;99795.78;5013591;28;20021;-67
2022/11/29 01:09:05;;;;;;;23.92;14.82;;;;;;;5.45;88.25;99805.47;5031147;28;20018;-67
2022/11/29 01:11:31;;;;;;;22.50;14.65;;;;;;;5.47;88.06;99792.97;5030892;28;20420;-67
2022/11/29 01:13:59;;;;;;;26.75;15.77;;;;;;;5.52;87.96;99799.56;5030253;28;20032;-67
2022/11/29 01:16:26;;;;;;;24.27;17.00;;;;;;;5.55;88.11;99801.75;5031165;28;20036;-67
2022/11/29 01:18:51;;;;;;;24.67;16.77;;;;;;;5.21;88.06;99789.59;5011407;28;20026;-67
2022/11/29 01:21:20;;;;;;;29.23;17.42;;;;;;;5.08;89.70;99793.91;5031009;28;20033;-67
2022/11/29 01:23:46;;;;;;;24.23;16.30;;;;;;;5.09;89.92;99803.88;5029907;28;20492;-66
2022/11/29 01:26:15;;;;;;;32.40;21.23;;;;;;;4.97;90.71;99801.44;5013088;28;20104;-67
2022/11/29 01:28:41;;;;;;;31.95;19.08;;;;;;;4.57;93.16;99793.13;5013344;28;20021;-66
2022/11/29 01:31:12;;;;;;;26.45;17.92;;;;;;;4.87;92.34;99795.97;5030452;28;20055;-67
2022/11/29 01:33:38;;;;;;;29.00;17.42;;;;;;;4.95;91.53;99797.31;5029516;28;20034;-67
2022/11/29 01:36:05;;;;;;;26.70;16.85;;;;;;;5.05;91.32;99786.13;5030915;28;20056;-67
2022/11/29 01:38:31;;;;;;;27.80;18.70;;;;;;;4.69;92.44;99783.63;5030779;28;20029;-67
2022/11/29 01:41:00;;;;;;;29.10;18.42;;;;;;;4.53;94.17;99792.06;5030904;28;20069;-67
2022/11/29 01:43:27;;;;;;;37.42;19.88;;;;;;;4.55;94.17;99787.06;5029778;28;20461;-67
2022/11/29 01:45:52;;;;;;;34.35;20.48;;;;;;;4.51;95.75;99785.97;5030709;28;20053;-67
2022/11/29 01:48:23;;;;;;;43.70;25.75;;;;;;;4.52;95.35;99779.31;5030770;28;20029;-67
2022/11/29 01:50:48;;;;;;;;;;;;;;;4.68;95.16;99781.97;5031299;28;20488;-67
2022/11/29 01:53:15;;;;;;;34.58;20.40;;;;;;;4.63;96.07;99778.16;5029312;28;19924;-67
2022/11/29 01:55:45;;;;;;;34.47;21.63;;;;;;;4.52;95.82;99770.16;5013036;28;20401;-67
2022/11/29 01:58:13;;;;;;;31.63;19.17;;;;;;;4.46;96.42;99766.59;5013436;28;20045;-67
2022/11/29 02:00:39;;;;;;;29.65;19.05;;;;;;;4.55;97.28;99769.63;5012653;28;20068;-67
2022/11/29 02:03:10;;;;;;;34.70;20.50;;;;;;;4.26;98.25;99776.72;5029685;28;20424;-67
2022/11/29 02:05:40;;;;;;;35.50;22.33;;;;;;;4.24;99.44;99778.09;5030705;28;20063;-67
2022/11/29 02:08:08;;;;;;;34.17;20.55;;;;;;;4.21;98.97;99774.78;5030549;28;20029;-67
2022/11/29 02:10:55;;;;;;;36.55;21.67;;;;;;;4.24;99.22;99778.94;5030671;28;20103;-67
2022/11/29 02:13:32;;;;;;;32.40;19.05;;;;;;;4.06;100.00;99777.66;5029310;28;20036;-67
2022/11/29 02:16:30;;;;;;;35.53;22.10;;;;;;;4.20;100.00;99775.06;5015912;28;20044;-66
2022/11/29 02:19:10;;;;;;;33.03;20.70;;;;;;;4.12;100.00;99784.00;5016563;28;20480;-67
2022/11/29 02:21:51;;;;;;;38.90;22.45;;;;;;;4.19;100.00;99782.56;5034043;28;20025;-67
2022/11/29 02:24:22;;;;;;;39.72;23.30;;;;;;;4.25;100.00;99779.75;5033013;28;20476;-67
2022/11/29 02:27:02;;;;;;;43.25;23.20;;;;;;;4.33;100.00;99782.75;5034123;28;20049;-66
2022/11/29 02:29:50;;;;;;;41.17;22.23;;;;;;;4.31;100.00;99784.97;5034068;28;20085;-66
2022/11/29 02:32:37;;;;;;;38.42;22.88;;;;;;;4.31;100.00;99784.16;5012984;28;20507;-67
2022/11/29 02:35:24;;;;;;;40.92;24.25;;;;;;;4.27;100.00;99783.91;4996777;28;20424;-66
2022/11/29 02:38:05;;;;;;;44.83;26.67;;;;;;;4.25;100.00;99788.91;5014218;28;20382;-67
2022/11/29 02:40:53;;;;;;;46.55;26.25;;;;;;;4.34;100.00;99784.44;5014104;28;20520;-66
2022/11/29 02:43:51;;;;;;;47.03;29.10;;;;;;;4.50;100.00;99789.88;5018976;28;20488;-67
2022/11/29 02:46:47;;;;;;;47.75;28.27;;;;;;;4.54;99.86;99785.41;5031306;28;20053;-67
2022/11/29 02:49:21;;;;;;;46.83;27.02;;;;;;;4.58;99.43;99789.25;5033708;28;20040;-67
2022/11/29 02:52:15;;;;;;;46.40;28.77;;;;;;;4.35;100.00;99785.25;5015891;28;20032;-66
2022/11/29 02:55:05;;;;;;;48.88;30.52;;;;;;;4.29;100.00;99791.94;5011765;28;20033;-67
2022/11/29 02:57:37;;;;;;;68.27;39.80;;;;;;;4.16;100.00;99787.84;5015732;28;20049;-66
2022/11/29 03:00:18;;;;;;;72.43;40.38;;;;;;;4.18;100.00;99780.06;5033413;28;20846;-67
2022/11/29 03:02:49;;;;;;;75.03;45.38;;;;;;;4.11;100.00;99788.69;5014900;28;20518;-66
2022/11/29 03:05:15;;;;;;;90.07;46.60;;;;;;;3.98;100.00;99781.84;5027700;28;20033;-67
2022/11/29 03:08:04;;;;;;;79.40;44.22;;;;;;;4.03;100.00;99786.50;5033133;28;20105;-67
2022/11/29 03:10:29;;;;;;;86.47;46.78;;;;;;;4.25;100.00;99790.84;5053339;28;20056;-67
2022/11/29 03:12:57;;;;;;;69.20;39.00;;;;;;;4.32;100.00;99781.09;5034153;28;20127;-67
2022/11/29 03:15:22;;;;;;;69.00;39.03;;;;;;;4.36;100.00;99795.19;5035244;28;20029;-67
2022/11/29 03:18:21;;;;;;;62.67;37.13;;;;;;;4.32;100.00;99781.09;5053139;28;20074;-67
2022/11/29 03:21:05;;;;;;;97.32;50.38;;;;;;;3.98;100.00;99770.75;5052801;28;20484;-67
2022/11/29 03:23:35;;;;;;;88.30;47.33;;;;;;;4.16;100.00;99774.84;5034189;28;20504;-67
2022/11/29 03:26:00;;;;;;;;;;;;;;;4.21;100.00;99771.19;5052807;28;20436;-66
2022/11/29 03:28:32;;;;;;;80.75;43.05;;;;;;;4.01;100.00;99777.66;5034737;28;19942;-67
2022/11/29 03:31:42;;;;;;;76.45;42.50;;;;;;;4.10;100.00;99777.88;5052862;28;20029;-66
2022/11/29 03:34:30;;;;;;;70.80;40.50;;;;;;;3.83;100.00;99773.56;5047966;28;20067;-66
2022/11/29 03:37:54;;;;;;;73.10;42.25;;;;;;;3.88;100.00;99776.34;5052801;28;20455;-66
2022/11/29 03:40:28;;;;;;;77.15;42.88;;;;;;;3.69;100.00;99762.28;4985497;28;20044;-66
2022/11/29 03:43:22;;;;;;;72.90;42.88;;;;;;;3.78;100.00;99769.72;5051249;28;20021;-66
2022/11/29 03:46:14;;;;;;;77.55;43.55;;;;;;;3.81;100.00;99770.25;5051956;28;20128;-66
2022/11/29 03:48:51;;;;;;;71.07;41.42;;;;;;;3.84;100.00;99775.22;5040763;28;20116;-66
2022/11/29 03:51:33;;;;;;;89.80;46.63;;;;;;;3.83;100.00;99771.66;5052690;28;20024;-66
2022/11/29 03:54:03;;;;;;;85.55;47.20;;;;;;;3.93;100.00;99782.69;5033594;28;20048;-66
2022/11/29 03:56:34;;;;;;;80.03;43.92;;;;;;;3.74;100.00;99779.72;5049223;28;20400;-67
2022/11/29 03:59:25;;;;;;;78.65;44.22;;;;;;;3.74;100.00;99782.47;5051681;28;20062;-66
2022/11/29 04:02:19;;;;;;;78.82;43.60;;;;;;;3.76;100.00;99780.25;5033472;28;20138;-67
2022/11/29 04:05:02;;;;;;;75.43;40.58;;;;;;;3.77;100.00;99792.13;5050794;28;20036;-66
2022/11/29 04:07:37;;;;;;;75.78;41.38;;;;;;;3.93;100.00;99798.44;5046270;28;20021;-67
2022/11/29 04:10:24;;;;;;;67.32;39.03;;;;;;;4.11;100.00;99790.63;5049936;28;20033;-66
2022/11/29 04:12:56;;;;;;;80.85;42.20;;;;;;;4.03;100.00;99795.66;5029956;28;20573;-66
2022/11/29 04:15:37;;;;;;;75.28;42.17;;;;;;;4.19;100.00;99798.34;5050288;28;20411;-66
2022/11/29 04:18:12;;;;;;;75.22;43.50;;;;;;;4.31;100.00;99790.50;5031982;28;20029;-66
2022/11/29 04:20:53;;;;;;;85.22;44.85;;;;;;;4.42;100.00;99796.00;5014274;28;20098;-66
2022/11/29 04:23:43;;;;;;;100.97;52.85;;;;;;;4.56;100.00;99790.66;5022956;28;20033;-67
2022/11/29 04:26:11;;;;;;;81.75;45.35;;;;;;;4.63;100.00;99786.47;5043150;28;20081;-66
2022/11/29 04:29:04;;;;;;;79.32;43.67;;;;;;;4.66;100.00;99789.75;5047840;28;20032;-66
2022/11/29 04:31:45;;;;;;;74.38;44.83;;;;;;;4.58;99.34;99789.25;5029272;28;20135;-67
2022/11/29 04:34:28;;;;;;;71.90;40.13;;;;;;;4.59;99.38;99793.69;5041895;28;20497;-66
2022/11/29 04:37:21;;;;;;;69.28;40.40;;;;;;;4.68;99.11;99785.59;5031701;28;20459;-66
2022/11/29 04:40:16;;;;;;;84.40;46.15;;;;;;;4.57;98.89;99787.59;5045226;28;20032;-66
2022/11/29 04:42:54;;;;;;;99.00;48.38;;;;;;;4.48;99.23;99789.34;5050801;28;20044;-66
2022/11/29 04:45:38;;;;;;;85.22;49.83;;;;;;;4.36;99.77;99803.50;5029996;28;20044;-67
2022/11/29 04:48:22;;;;;;;87.13;49.25;;;;;;;4.45;99.54;99798.19;5026445;28;20088;-67
2022/11/29 04:51:38;;;;;;;85.60;44.03;;;;;;;4.62;98.51;99795.88;5046877;28;20090;-66
2022/11/29 04:54:27;;;;;;;75.68;44.00;;;;;;;4.82;97.68;99802.38;4993224;28;20569;-67
2022/11/29 04:57:24;;;;;;;71.93;43.47;;;;;;;4.94;96.63;99795.66;5050851;28;20029;-67
2022/11/29 05:00:11;;;;;;;70.63;41.05;;;;;;;4.98;96.42;99803.09;5013772;28;20507;-67
2022/11/29 05:02:54;;;;;;;70.90;42.38;;;;;;;4.86;96.14;99803.47;5012391;28;20503;-67
2022/11/29 05:05:43;;;;;;;72.15;40.53;;;;;;;4.89;95.93;99800.13;5031387;28;20032;-66
2022/11/29 05:08:39;;;;;;;75.35;41.55;;;;;;;4.99;95.89;99799.22;5036285;28;20025;-67
2022/11/29 05:11:17;;;;;;;78.30;40.35;;;;;;;4.87;95.30;99804.28;5030464;28;20419;-67
2022/11/29 05:13:55;;;;;;;65.18;36.78;;;;;;;5.01;95.17;99801.69;5029171;28;20119;-68
2022/11/29 05:16:39;;;;;;;72.05;39.50;;;;;;;5.03;94.56;99807.78;5029245;28;20488;-67
2022/11/29 05:19:52;;;;;;;68.95;38.05;;;;;;;5.02;94.89;99800.59;5051005;28;20025;-67
2022/11/29 05:22:40;;;;;;;59.38;35.05;;;;;;;5.06;94.26;99810.81;4986419;28;20051;-66
2022/11/29 05:25:30;;;;;;;70.80;42.88;;;;;;;5.05;94.79;99806.38;5046813;28;20415;-67
2022/11/29 05:28:05;;;;;;;94.03;54.42;;;;;;;5.15;94.58;99813.78;5032982;28;20116;-74
2022/11/29 05:30:58;;;;;;;78.85;47.63;;;;;;;5.19;93.38;99814.03;5031619;28;20063;-68
2022/11/29 05:34:09;;;;;;;68.18;35.45;;;;;;;5.10;93.46;99822.16;5032980;28;20572;-66
2022/11/29 05:36:39;;;;;;;64.63;37.75;;;;;;;4.95;93.97;99825.88;5041469;28;20049;-66
2022/11/29 05:39:21;;;;;;;64.30;35.40;;;;;;;4.96;94.91;99824.75;5010644;28;20064;-66
2022/11/29 05:42:13;;;;;;;62.65;34.92;;;;;;;5.05;94.81;99828.56;5041272;28;20044;-70
2022/11/29 05:44:58;;;;;;;61.50;34.92;;;;;;;4.98;94.23;99828.06;5048443;28;20051;-67
2022/11/29 05:47:34;;;;;;;71.05;36.20;;;;;;;5.11;93.78;99831.28;5048231;28;20072;-66
2022/11/29 05:50:11;;;;;;;62.70;33.13;;;;;;;5.06;93.79;99827.44;5049802;28;20029;-67
2022/11/29 05:53:14;;;;;;;60.47;32.85;;;;;;;5.04;93.95;99828.84;5031531;28;20033;-67
2022/11/29 05:55:54;;;;;;;51.90;30.40;;;;;;;5.06;94.39;99829.38;4991074;28;20468;-67
2022/11/29 05:58:38;;;;;;;58.63;33.42;;;;;;;5.07;94.09;99828.28;5032098;28;20017;-67
2022/11/29 06:01:34;;;;;;;61.55;32.78;;;;;;;5.13;94.25;99827.13;5037013;28;20021;-67
2022/11/29 06:04:11;;;;;;;57.35;30.98;;;;;;;5.18;94.21;99832.59;5033252;28;20029;-67
2022/11/29 06:06:56;;;;;;;55.67;31.45;;;;;;;5.29;93.62;99826.97;5039326;28;20454;-67
2022/11/29 06:09:34;;;;;;;71.65;37.95;;;;;;;5.31;93.72;99838.63;5051914;28;20503;-67
2022/11/29 06:12:11;;;;;;;54.97;31.10;;;;;;;5.15;93.74;99833.19;5050292;28;20035;-67
2022/11/29 06:15:22;;;;;;;61.65;33.58;;;;;;;5.14;94.24;99836.28;5051476;28;20048;-67
2022/11/29 06:18:35;;;;;;;69.63;40.30;;;;;;;5.20;93.68;99833.16;5051698;28;20025;-67
2022/11/29 06:21:19;;;;;;;77.75;44.88;;;;;;;5.24;93.59;99838.13;4966225;28;20030;-67
2022/11/29 06:24:23;;;;;;;69.50;42.42;;;;;;;5.21;93.95;99836.75;5030362;28;20139;-67
2022/11/29 06:26:59;;;;;;;103.78;52.35;;;;;;;5.14;94.16;99839.84;4934059;28;20035;-67
2022/11/29 06:29:39;;;;;;;88.63;45.85;;;;;;;5.15;94.22;99824.88;5029332;28;20415;-68
2022/11/29 06:32:24;;;;;;;111.82;55.22;;;;;;;5.22;93.77;99829.28;5049129;28;20475;-66
2022/11/29 06:35:28;;;;;;;89.18;46.00;;;;;;;5.33;93.37;99828.88;5049879;28;20480;-66
2022/11/29 06:37:57;;;;;;;87.20;46.83;;;;;;;5.41;93.02;99832.97;5001387;28;20095;-65
2022/11/29 06:40:23;;;;;;;73.05;38.08;;;;;;;5.30;92.94;99834.16;5026135;28;20021;-69
2022/11/29 06:42:48;;;;;;;76.93;40.95;;;;;;;5.29;93.51;99835.28;5050082;28;20028;-70
2022/11/29 06:45:14;;;;;;;63.90;35.42;;;;;;;5.39;93.33;99817.75;5048710;28;20031;-70
2022/11/29 06:47:51;;;;;;;69.75;36.15;;;;;;;5.48;92.80;99827.91;5022635;28;20073;-69
2022/11/29 06:50:38;;;;;;;63.33;33.88;;;;;;;5.48;92.99;99827.06;5030023;28;20460;-69
2022/11/29 06:53:06;;;;;;;63.42;34.22;;;;;;;5.38;93.41;99827.19;5021864;28;20034;-72
2022/11/29 06:55:43;;;;;;;83.03;41.75;;;;;;;5.35;93.70;99831.38;5030548;28;20037;-70
2022/11/29 06:58:36;;;;;;;59.17;33.42;;;;;;;5.40;93.55;99834.09;5013382;28;20040;-71
2022/11/29 07:01:12;;;;;;;67.50;35.33;;;;;;;5.32;93.20;99824.44;5008515;28;20766;-71
2022/11/29 07:04:02;;;;;;;86.85;46.03;;;;;;;5.40;93.26;99830.50;5011780;28;20037;-68
2022/11/29 07:06:28;;;;;;;74.47;39.55;;;;;;;5.32;93.08;99831.97;5008192;28;20095;-70
2022/11/29 07:09:09;;;;;;;71.28;41.75;;;;;;;5.48;92.70;99838.16;5029940;28;20043;-73
2022/11/29 07:11:34;;;;;;;47.55;26.88;;;;;;;5.47;92.02;99837.38;5012072;28;20045;-70
2022/11/29 07:14:00;;;;;;;43.75;24.20;;;;;;;5.40;91.83;99834.09;5029545;28;20029;-72
2022/11/29 07:16:43;;;;;;;43.58;23.73;;;;;;;5.42;91.94;99831.84;5003908;28;20117;-72
2022/11/29 07:19:21;;;;;;;50.13;27.63;;;;;;;5.48;91.28;99821.53;5005600;28;20029;-68
2022/11/29 07:22:16;;;;;;;53.08;30.20;;;;;;;5.52;92.03;99833.72;5022436;28;20045;-68
2022/11/29 07:25:01;;;;;;;45.20;24.83;;;;;;;5.55;91.54;99833.13;4991849;28;20047;-68
2022/11/29 07:27:26;;;;;;;47.45;24.88;;;;;;;5.61;90.64;99837.53;5025573;28;20029;-68
2022/11/29 07:30:13;;;;;;;45.10;24.67;;;;;;;5.60;90.32;99840.56;5028677;28;20511;-68
2022/11/29 07:32:47;;;;;;;41.83;22.30;;;;;;;5.53;90.24;99829.81;5005572;28;20396;-68
2022/11/29 07:35:40;;;;;;;46.22;23.42;;;;;;;5.67;89.87;99841.06;5034920;28;20042;-68
2022/11/29 07:38:50;;;;;;;46.42;24.58;;;;;;;5.75;89.41;99837.63;5029988;28;20030;-68
2022/11/29 07:41:18;;;;;;;;;;;;;;;5.80;89.26;99838.72;4995213;28;21848;-68
2022/11/29 07:43:53;;;;;;;44.85;25.50;;;;;;;5.74;89.86;99835.97;5022082;28;19921;-68
2022/11/29 07:46:18;;;;;;;55.00;33.50;;;;;;;5.82;89.45;99836.47;5022141;28;20034;-68
2022/11/29 07:48:43;;;;;;;50.92;27.27;;;;;;;5.87;88.79;99836.41;5026204;28;20050;-68
2022/11/29 07:51:09;;;;;;;43.15;25.45;;;;;;;5.85;89.45;99838.66;5029103;28;20029;-68
2022/11/29 07:53:40;;;;;;;54.47;28.15;;;;;;;5.90;89.19;99836.66;5030152;28;20029;-68
2022/11/29 07:56:08;;;;;;;51.28;26.92;;;;;;;6.02;89.66;99835.44;5012634;28;20068;-68
2022/11/29 07:58:33;;;;;;;43.67;26.00;;;;;;;5.98;89.04;99840.72;5025060;28;20096;-68
2022/11/29 08:00:58;;;;;;;44.95;26.38;;;;;;;6.07;89.26;99843.69;5024569;28;20044;-68
2022/11/29 08:03:24;;;;;;;47.83;27.05;;;;;;;6.12;89.07;99840.03;5011135;28;20029;-68
2022/11/29 08:05:49;;;;;;;51.17;29.52;;;;;;;6.15;88.13;99833.88;5025877;28;20074;-68
2022/11/29 08:08:15;;;;;;;61.85;30.60;;;;;;;6.16;87.63;99841.94;5029017;28;20084;-68
2022/11/29 08:10:40;;;;;;;53.45;27.98;;;;;;;6.02;89.35;99846.56;5032044;28;20140;-67
2022/11/29 08:13:06;;;;;;;52.22;28.48;;;;;;;6.10;88.55;99831.19;5027356;28;20037;-70
2022/11/29 08:15:31;;;;;;;46.25;27.40;;;;;;;6.00;88.18;99835.69;5030494;28;20045;-69
2022/11/29 08:17:57;;;;;;;52.95;30.05;;;;;;;6.16;88.15;99843.91;5031304;28;20030;-70
2022/11/29 08:20:22;;;;;;;49.92;27.58;;;;;;;6.12;87.32;99843.66;5031755;28;20060;-70
2022/11/29 08:22:56;;;;;;;46.30;25.40;;;;;;;6.16;86.94;99846.69;5027205;28;20036;-69
2022/11/29 08:25:22;;;;;;;58.70;29.60;;;;;;;6.22;87.19;99842.69;5012255;28;20052;-68
2022/11/29 08:27:49;;;;;;;56.72;29.20;;;;;;;6.25;87.03;99841.28;5031710;28;20022;-69
2022/11/29 08:30:17;;;;;;;53.22;29.92;;;;;;;6.07;88.80;99848.44;5031309;28;20021;-70
2022/11/29 08:32:43;;;;;;;63.22;30.75;;;;;;;5.94;89.10;99850.78;5028632;28;20025;-69
2022/11/29 08:35:09;;;;;;;64.80;34.35;;;;;;;6.06;89.62;99841.25;5029983;28;20036;-69
2022/11/29 08:37:34;;;;;;;57.33;31.33;;;;;;;6.04;89.41;99838.75;5030196;28;20029;-69
2022/11/29 08:40:00;;;;;;;53.90;28.30;;;;;;;6.06;89.42;99836.50;5019318;28;20021;-69
2022/11/29 08:42:25;;;;;;;61.78;33.60;;;;;;;6.09;89.44;99835.91;5026082;28;20029;-69
2022/11/29 08:44:51;;;;;;;74.10;41.05;;;;;;;6.23;89.18;99836.00;5030919;28;20455;-69
2022/11/29 08:47:34;;;;;;;67.25;36.92;;;;;;;6.35;88.77;99830.06;5023336;28;20057;-70
2022/11/29 08:50:01;;;;;;;72.95;37.55;;;;;;;6.22;87.25;99831.59;4994066;28;20088;-69
2022/11/29 08:55:20;;;;;;;75.40;41.97;;;;;;;6.08;87.80;99827.88;5010804;28;20522;-68
2022/11/29 08:57:46;;;;;;;72.88;40.05;;;;;;;6.21;87.00;99827.16;4990374;28;20073;-69
2022/11/29 09:00:12;;;;;;;78.95;45.13;;;;;;;6.31;86.38;99827.03;5006268;28;20029;-69
2022/11/29 09:02:38;;;;;;;78.88;44.55;;;;;;;6.46;86.57;99823.22;5009925;28;20451;-69
2022/11/29 09:05:05;;;;;;;43.78;24.45;;;;;;;6.21;84.80;99813.28;5011736;28;20026;-69
2022/11/29 09:07:31;;;;;;;42.97;23.52;;;;;;;5.90;84.85;99816.38;5008096;28;20080;-69
2022/11/29 09:09:56;;;;;;;41.40;21.30;;;;;;;5.55;86.39;99810.91;4987785;28;20413;-69
2022/11/29 09:12:22;;;;;;;44.08;24.33;;;;;;;6.06;86.01;99802.34;5000539;28;20032;-67
2022/11/29 09:14:48;;;;;;;45.03;28.08;;;;;;;6.20;85.21;99800.50;4985914;28;20038;-68
2022/11/29 09:17:13;;;;;;;35.25;19.35;;;;;;;6.17;85.55;99792.78;5002987;28;20029;-70
2022/11/29 09:19:38;;;;;;;31.08;18.27;;;;;;;6.38;85.25;99804.44;4977669;28;20018;-70
2022/11/29 09:22:04;;;;;;;32.28;19.48;;;;;;;5.56;87.19;99795.94;4983684;28;20030;-68
2022/11/29 09:24:30;;;;;;;34.53;20.63;;;;;;;5.72;89.27;99792.97;4979151;28;20034;-68
2022/11/29 09:26:55;;;;;;;39.78;21.27;;;;;;;5.82;88.59;99792.88;5006922;28;20029;-68
2022/11/29 09:29:21;;;;;;;30.75;17.50;;;;;;;5.62;87.49;99786.44;5000331;28;20022;-70
2022/11/29 09:31:46;;;;;;;28.60;17.52;;;;;;;6.00;86.89;99785.72;5000672;28;20071;-71
2022/11/29 09:34:15;;;;;;;30.30;16.20;;;;;;;5.98;87.46;99785.19;4999300;28;20125;-68
2022/11/29 09:36:44;;;;;;;26.92;14.93;;;;;;;6.20;86.63;99781.06;4982651;28;20144;-70
2022/11/29 09:39:13;;;;;;;22.40;13.52;;;;;;;6.02;86.75;99777.13;5004618;28;20092;-69
2022/11/29 09:41:47;;;;;;;29.40;17.90;;;;;;;6.14;87.60;99783.09;4996746;28;20556;-68
2022/11/29 09:44:35;;;;;;;22.75;12.88;;;;;;;5.80;86.38;99772.09;5001296;28;20439;-68
2022/11/29 09:47:25;;;;;;;21.88;12.15;;;;;;;5.77;88.39;99776.28;5009485;28;20042;-67
2022/11/29 09:50:18;;;;;;;26.63;14.07;;;;;;;5.88;88.45;99776.97;5021170;28;20452;-67
2022/11/29 09:53:01;;;;;;;29.10;17.13;;;;;;;5.86;87.63;99776.44;5030630;28;20029;-66
2022/11/29 09:55:33;;;;;;;26.60;16.00;;;;;;;6.13;87.80;99775.03;5020029;28;20025;-67
2022/11/29 09:58:02;;;;;;;30.45;17.30;;;;;;;6.04;88.46;99772.94;5040734;28;20035;-68
2022/11/29 10:00:31;;;;;;;25.17;13.90;;;;;;;5.96;88.04;99769.94;5046169;28;20047;-70
2022/11/29 10:03:35;;;;;;;27.60;14.93;;;;;;;6.12;87.54;99771.44;5045275;28;20039;-67
2022/11/29 10:06:15;;;;;;;34.92;16.73;;;;;;;5.84;87.67;99767.59;5037133;28;20412;-67
2022/11/29 10:08:48;;;;;;;25.88;15.38;;;;;;;5.83;87.87;99766.75;5042295;28;20527;-66
2022/11/29 10:11:20;;;;;;;27.80;16.33;;;;;;;6.04;87.85;99767.38;5040489;28;20519;-67
2022/11/29 10:13:52;;;;;;;33.42;18.63;;;;;;;6.34;87.41;99761.72;5040758;28;20162;-67
2022/11/29 10:16:27;;;;;;;28.95;15.80;;;;;;;6.56;86.71;99766.66;5045710;28;20481;-68
2022/11/29 10:19:14;;;;;;;23.80;14.27;;;;;;;6.35;86.19;99765.31;5043307;28;20162;-67
2022/11/29 10:21:43;;;;;;;24.55;15.35;;;;;;;6.36;87.81;99766.97;5021653;28;20025;-69
2022/11/29 10:24:16;;;;;;;33.15;19.80;;;;;;;6.52;87.47;99756.44;5036883;28;20025;-68
2022/11/29 10:26:42;;;;;;;31.20;18.13;;;;;;;6.71;86.19;99750.88;5027869;28;20033;-65
2022/11/29 10:29:17;;;;;;;30.90;17.33;;;;;;;6.47;86.41;99757.34;5045703;28;20029;-68
2022/11/29 10:31:48;;;;;;;28.13;15.65;;;;;;;6.37;86.28;99757.50;5043031;28;20035;-69
2022/11/29 10:34:16;;;;;;;28.80;17.27;;;;;;;6.50;85.96;99751.19;5044776;28;20457;-69
2022/11/29 10:36:46;;;;;;;27.13;16.15;;;;;;;6.83;84.78;99759.56;5046912;28;20032;-69
2022/11/29 10:39:19;;;;;;;26.45;15.98;;;;;;;6.80;83.70;99757.41;5041596;28;20087;-68
2022/11/29 10:41:49;;;;;;;27.95;17.17;;;;;;;6.56;85.06;99747.22;5043043;28;20017;-67
2022/11/29 10:44:14;;;;;;;24.30;16.50;;;;;;;6.50;87.26;99748.41;5039481;28;20078;-68
2022/11/29 10:46:40;;;;;;;23.38;14.80;;;;;;;6.07;85.64;99752.06;5031317;28;21672;-68
2022/11/29 10:49:12;;;;;;;24.98;16.15;;;;;;;6.35;85.81;99731.97;5050490;28;20040;-68
2022/11/29 10:51:38;;;;;;;24.42;14.98;;;;;;;6.36;86.43;99728.06;5035240;28;20831;-71
2022/11/29 10:54:43;;;;;;;30.30;16.42;;;;;;;6.28;88.19;99735.13;5050327;28;20063;-69
2022/11/29 10:57:16;;;;;;;35.15;17.92;;;;;;;6.50;87.29;99733.69;5040419;28;20516;-67
2022/11/29 10:59:58;;;;;;;32.50;20.48;;;;;;;6.52;86.03;99723.09;5044982;28;20028;-67
2022/11/29 11:02:24;;;;;;;29.77;18.38;;;;;;;6.51;86.65;99733.38;5040837;28;20030;-67
2022/11/29 11:04:49;;;;;;;27.73;16.08;;;;;;;6.29;87.03;99723.72;5038314;28;20022;-68
2022/11/29 11:07:34;;;;;;;31.98;17.85;;;;;;;6.29;87.49;99734.81;5046938;28;20083;-67
2022/11/29 11:10:01;;;;;;;71.35;31.25;;;;;;;6.44;87.06;99724.59;5027353;28;20098;-67
2022/11/29 11:12:32;;;;;;;29.42;17.60;;;;;;;6.09;86.89;99730.34;5032725;28;20662;-66
2022/11/29 11:15:23;;;;;;;30.77;18.55;;;;;;;6.09;86.72;99721.22;5037578;28;20033;-66
2022/11/29 11:18:03;;;;;;;25.80;15.85;;;;;;;6.09;88.29;99718.44;5027794;28;20123;-65
2022/11/29 11:20:39;;;;;;;24.73;13.93;;;;;;;6.44;86.87;99717.09;5022022;28;20037;-66
2022/11/29 11:23:23;;;;;;;133.20;65.18;;;;;;;6.74;84.80;99716.91;5027914;28;20086;-67
2022/11/29 11:25:55;;;;;;;63.50;31.65;;;;;;;6.87;83.54;99723.66;5050515;28;20016;-69
2022/11/29 11:28:25;;;;;;;32.88;16.38;;;;;;;6.80;84.78;99725.97;5032337;28;20146;-67
2022/11/29 11:30:54;;;;;;;39.25;19.70;;;;;;;6.89;84.45;99721.38;5050678;28;20037;-66
2022/11/29 11:33:27;;;;;;;27.27;16.42;;;;;;;7.17;83.64;99718.66;5045091;28;20025;-66
2022/11/29 11:36:07;;;;;;;28.08;17.15;;;;;;;7.35;81.88;99716.94;5049602;28;20036;-68
2022/11/29 11:38:34;;;;;;;24.65;16.02;;;;;;;7.30;81.90;99709.53;5037323;28;20887;-67
2022/11/29 11:41:14;;;;;;;28.92;16.35;;;;;;;7.31;82.52;99718.69;5027783;28;20036;-68
2022/11/29 11:43:40;;;;;;;25.02;16.67;;;;;;;7.36;82.40;99721.41;5040519;28;20581;-67
2022/11/29 11:46:05;;;;;;;29.75;15.30;;;;;;;7.33;82.21;99716.44;5029926;28;20041;-68
2022/11/29 11:48:32;;;;;;;39.70;23.08;;;;;;;7.31;82.09;99707.56;5048446;28;20045;-65
2022/11/29 11:51:00;;;;;;;345.70;142.85;;;;;;;7.50;81.50;99707.47;5022588;28;20033;-65
2022/11/29 11:53:35;;;;;;;119.85;48.05;;;;;;;7.49;82.12;99710.59;5031846;28;20041;-65
2022/11/29 11:56:06;;;;;;;56.72;26.67;;;;;;;7.48;81.06;99718.09;5030617;28;20021;-65
2022/11/29 11:58:44;;;;;;;25.73;14.00;;;;;;;7.13;82.04;99718.47;5048856;28;20511;-66
2022/11/29 12:01:29;;;;;;;36.88;18.13;;;;;;;7.31;81.98;99721.47;5046015;28;20028;-64
2022/11/29 12:04:13;;;;;;;24.63;15.00;;;;;;;7.32;82.10;99722.31;5037286;28;20025;-66
2022/11/29 12:07:04;;;;;;;29.15;16.75;;;;;;;7.21;81.90;99718.88;5049734;28;20070;-65